createdAt,value
2022-11-06T00:01:48.438Z,8.50
2022-11-06T00:06:09.156Z,8.40
2022-11-06T00:10:10.780Z,8.40
2022-11-06T00:14:12.751Z,8.50
2022-11-06T00:18:14.839Z,8.40
2022-11-06T00:22:16.654Z,8.40
2022-11-06T00:26:19.692Z,8.40
2022-11-06T00:30:21.272Z,8.40
2022-11-06T00:34:22.903Z,8.30
2022-11-06T00:38:24.522Z,8.40
2022-11-06T00:42:26.188Z,8.30
2022-11-06T00:46:28.099Z,8.30
2022-11-06T00:50:29.708Z,8.30
2022-11-06T00:54:31.416Z,8.20
2022-11-06T00:58:35.105Z,8.20
2022-11-06T01:02:36.879Z,8.20
2022-11-06T01:06:40.083Z,8.20
2022-11-06T01:10:41.695Z,8.10
2022-11-06T01:14:43.734Z,8.20
2022-11-06T01:18:47.482Z,8.20
2022-11-06T01:22:49.093Z,8.20
2022-11-06T01:27:19.855Z,8.10
2022-11-06T01:31:14.118Z,8.20
2022-11-06T01:35:15.754Z,8.10
2022-11-06T01:39:17.342Z,8.10
2022-11-06T01:43:43.440Z,8.10
2022-11-06T01:47:45.288Z,8.10
2022-11-06T01:51:49.527Z,8.10
2022-11-06T01:55:52.504Z,8.10
2022-11-06T01:59:54.711Z,8.10
2022-11-06T02:03:59.058Z,8.10
2022-11-06T02:08:01.212Z,8.00
2022-11-06T02:12:02.784Z,8.00
2022-11-06T02:16:20.303Z,8.10
2022-11-06T02:20:21.987Z,8.00
2022-11-06T02:24:23.591Z,8.00
2022-11-06T02:28:28.332Z,8.10
2022-11-06T02:32:29.962Z,8.10
2022-11-06T02:36:37.664Z,8.10
2022-11-06T02:44:50.297Z,8.10
2022-11-06T02:48:55.470Z,8.20
2022-11-06T02:53:02.405Z,8.10
2022-11-06T02:57:07.952Z,8.20
2022-11-06T03:01:15.737Z,8.20
2022-11-06T03:05:21.367Z,8.20
2022-11-06T03:09:25.962Z,8.20
2022-11-06T03:13:32.658Z,8.20
2022-11-06T03:17:41.248Z,8.30
2022-11-06T03:21:53.701Z,8.20
2022-11-06T03:25:57.584Z,8.30
2022-11-06T03:30:07.072Z,8.30
2022-11-06T03:34:10.719Z,8.40
2022-11-06T03:38:12.740Z,8.30
2022-11-06T03:42:16.622Z,8.40
2022-11-06T03:46:20.861Z,8.50
2022-11-06T03:50:44.639Z,8.50
2022-11-06T03:54:49.722Z,8.60
2022-11-06T03:58:51.809Z,8.60
2022-11-06T04:03:04.763Z,8.70
2022-11-06T04:07:12.061Z,8.80
2022-11-06T04:11:34.394Z,8.80
2022-11-06T04:15:51.801Z,8.80
2022-11-06T04:19:55.280Z,8.80
2022-11-06T04:24:26.828Z,8.80
2022-11-06T04:28:36.821Z,8.70
2022-11-06T04:32:59.996Z,8.70
2022-11-06T04:37:11.595Z,8.70
2022-11-06T04:41:34.616Z,8.60
2022-11-06T04:45:40.005Z,8.60
2022-11-06T04:49:42.602Z,8.60
2022-11-06T04:53:44.308Z,8.60
2022-11-06T04:57:45.971Z,8.60
2022-11-06T05:01:47.899Z,8.70
2022-11-06T05:05:49.664Z,8.60
2022-11-06T05:09:51.358Z,8.60
2022-11-06T05:13:52.922Z,8.60
2022-11-06T05:17:54.554Z,8.60
2022-11-06T05:22:14.730Z,8.60
2022-11-06T05:26:16.986Z,8.50
2022-11-06T05:30:18.843Z,8.50
2022-11-06T05:34:20.602Z,8.50
2022-11-06T05:38:22.383Z,8.50
2022-11-06T05:42:24.286Z,8.50
2022-11-06T05:46:50.534Z,8.50
2022-11-06T05:50:47.497Z,8.40
2022-11-06T05:54:49.222Z,8.50
2022-11-06T05:58:50.804Z,8.40
2022-11-06T06:02:52.442Z,8.40
2022-11-06T06:06:54.353Z,8.30
2022-11-06T06:10:55.955Z,8.30
2022-11-06T06:14:57.587Z,8.30
2022-11-06T06:18:59.231Z,8.40
2022-11-06T06:23:01.260Z,8.40
2022-11-06T06:27:02.972Z,8.40
2022-11-06T06:31:07.981Z,8.40
2022-11-06T06:35:09.834Z,8.40
2022-11-06T06:39:11.410Z,8.40
2022-11-06T06:43:12.967Z,8.40
2022-11-06T06:47:16.972Z,8.40
2022-11-06T06:51:23.765Z,8.40
2022-11-06T06:55:26.020Z,8.40
2022-11-06T06:59:28.117Z,8.40
2022-11-06T07:03:30.063Z,8.40
2022-11-06T07:07:32.025Z,8.50
2022-11-06T07:11:33.642Z,8.50
2022-11-06T07:15:35.291Z,8.50
2022-11-06T07:19:37.430Z,8.50
2022-11-06T07:23:39.123Z,8.60
2022-11-06T07:27:41.559Z,8.60
2022-11-06T07:31:43.250Z,8.70
2022-11-06T07:35:44.834Z,8.80
2022-11-06T07:39:46.464Z,9.00
2022-11-06T07:43:49.232Z,9.00
2022-11-06T07:47:55.114Z,9.10
2022-11-06T07:51:59.821Z,9.20
2022-11-06T07:56:01.643Z,9.20
2022-11-06T08:00:04.738Z,9.30
2022-11-06T08:04:06.362Z,9.30
2022-11-06T08:08:09.115Z,9.30
2022-11-06T08:12:10.698Z,9.40
2022-11-06T08:16:13.701Z,9.40
2022-11-06T08:20:15.416Z,9.50
2022-11-06T08:24:21.735Z,9.60
2022-11-06T08:28:24.688Z,9.70
2022-11-06T08:32:27.678Z,9.70
2022-11-06T08:36:29.530Z,9.80
2022-11-06T08:40:31.601Z,9.90
2022-11-06T08:44:33.298Z,9.90
2022-11-06T08:48:35.355Z,9.80
2022-11-06T08:52:36.982Z,9.90
2022-11-06T08:56:38.642Z,10.00
2022-11-06T09:00:40.304Z,9.90
2022-11-06T09:04:41.924Z,9.90
2022-11-06T09:08:43.535Z,9.70
2022-11-06T09:12:45.203Z,9.60
2022-11-06T09:16:46.783Z,9.70
2022-11-06T09:20:48.416Z,9.90
2022-11-06T09:25:03.192Z,10.00
2022-11-06T09:29:05.157Z,10.00
2022-11-06T09:33:12.215Z,10.00
2022-11-06T09:37:15.202Z,10.00
2022-11-06T09:41:23.383Z,10.00
2022-11-06T09:45:27.107Z,10.20
2022-11-06T09:49:41.547Z,10.30
2022-11-06T09:53:53.670Z,10.30
2022-11-06T09:58:00.831Z,10.40
2022-11-06T10:02:03.313Z,10.60
2022-11-06T10:06:05.213Z,10.80
2022-11-06T10:10:08.830Z,10.60
2022-11-06T10:14:25.658Z,10.60
2022-11-06T10:18:46.268Z,10.70
2022-11-06T10:22:54.568Z,10.80
2022-11-06T10:26:57.441Z,10.90
2022-11-06T10:31:02.104Z,10.90
2022-11-06T10:35:06.782Z,11.00
2022-11-06T10:39:17.832Z,11.10
2022-11-06T10:43:19.652Z,10.90
2022-11-06T10:47:23.019Z,10.90
2022-11-06T10:51:39.940Z,10.90
2022-11-06T10:55:44.555Z,11.00
2022-11-06T10:59:46.357Z,11.00
2022-11-06T11:03:48.310Z,11.00
2022-11-06T11:07:51.087Z,10.90
2022-11-06T11:11:52.729Z,10.90
2022-11-06T11:15:54.482Z,10.80
2022-11-06T11:19:56.116Z,10.80
2022-11-06T11:24:00.978Z,10.90
2022-11-06T11:28:04.991Z,11.00
2022-11-06T11:32:07.185Z,11.10
2022-11-06T11:36:09.930Z,11.40
2022-11-06T11:40:26.680Z,11.70
2022-11-06T11:44:28.335Z,11.60
2022-11-06T11:48:48.265Z,11.70
2022-11-06T11:52:51.526Z,11.70
2022-11-06T11:57:04.713Z,11.60
2022-11-06T12:01:09.252Z,11.60
2022-11-06T12:05:12.621Z,11.60
2022-11-06T12:09:14.355Z,11.60
2022-11-06T12:13:24.011Z,11.60
2022-11-06T12:17:26.542Z,11.60
2022-11-06T12:21:30.754Z,11.60
2022-11-06T12:25:36.229Z,11.40
2022-11-06T12:29:43.911Z,11.40
2022-11-06T12:34:05.596Z,11.50
2022-11-06T12:38:26.619Z,11.50
2022-11-06T12:42:31.224Z,11.40
2022-11-06T12:46:50.995Z,11.30
2022-11-06T12:51:00.664Z,11.30
2022-11-06T12:55:26.136Z,11.20
2022-11-06T12:59:35.596Z,11.20
2022-11-06T13:03:37.204Z,11.10
2022-11-06T13:08:05.141Z,11.10
2022-11-06T13:12:19.748Z,11.10
2022-11-06T13:16:29.329Z,11.10
2022-11-06T13:20:30.988Z,11.10
2022-11-06T13:24:38.214Z,11.10
2022-11-06T13:28:42.771Z,11.10
2022-11-06T13:33:02.747Z,10.90
2022-11-06T13:37:18.373Z,11.00
2022-11-06T13:41:30.988Z,10.80
2022-11-06T13:45:35.523Z,10.80
2022-11-06T13:49:46.598Z,10.80
2022-11-06T13:54:10.099Z,10.80
2022-11-06T13:58:27.363Z,10.70
2022-11-06T14:02:44.178Z,10.70
2022-11-06T14:06:46.727Z,10.70
2022-11-06T14:10:53.991Z,10.70
2022-11-06T14:15:14.476Z,10.70
2022-11-06T14:19:27.118Z,10.60
2022-11-06T14:23:28.825Z,10.70
2022-11-06T14:27:30.446Z,10.60
2022-11-06T14:31:50.928Z,10.60
2022-11-06T14:35:58.429Z,10.60
2022-11-06T14:40:01.561Z,10.50
2022-11-06T14:44:04.707Z,10.50
2022-11-06T14:48:08.494Z,10.50
2022-11-06T14:52:12.590Z,10.40
2022-11-06T14:56:21.038Z,10.30
2022-11-06T15:00:44.768Z,10.30
2022-11-06T15:04:49.957Z,10.20
2022-11-06T15:08:52.864Z,10.20
2022-11-06T15:13:17.839Z,10.20
2022-11-06T15:17:21.293Z,10.10
2022-11-06T15:21:24.953Z,10.10
2022-11-06T15:25:30.037Z,10.10
2022-11-06T15:29:34.282Z,10.00
2022-11-06T15:33:40.894Z,10.00
2022-11-06T15:37:44.609Z,10.00
2022-11-06T15:41:46.393Z,9.90
2022-11-06T15:46:06.789Z,9.80
2022-11-06T15:50:19.898Z,9.80
2022-11-06T15:54:32.269Z,9.70
2022-11-06T15:58:35.077Z,9.60
2022-11-06T16:02:50.482Z,9.50
2022-11-06T16:06:53.654Z,9.60
2022-11-06T16:10:55.800Z,9.60
2022-11-06T16:15:00.356Z,9.50
2022-11-06T16:19:07.566Z,9.40
2022-11-06T16:23:16.851Z,9.40
2022-11-06T16:27:20.452Z,9.50
2022-11-06T16:31:29.465Z,9.50
2022-11-06T16:35:36.070Z,9.40
2022-11-06T16:39:49.696Z,9.50
2022-11-06T16:44:11.872Z,9.50
2022-11-06T16:48:13.447Z,9.60
2022-11-06T16:52:34.144Z,9.50
2022-11-06T16:56:35.750Z,9.50
2022-11-06T17:00:38.880Z,9.50
2022-11-06T17:04:40.730Z,9.60
2022-11-06T17:08:42.495Z,9.50
2022-11-06T17:12:44.200Z,9.50
2022-11-06T17:16:59.606Z,9.50
2022-11-06T17:21:02.429Z,9.40
2022-11-06T17:25:04.302Z,9.40
2022-11-06T17:29:08.964Z,9.40
2022-11-06T17:33:11.011Z,9.30
2022-11-06T17:37:12.931Z,9.40
2022-11-06T17:41:29.793Z,9.30
2022-11-06T17:45:31.991Z,9.30
2022-11-06T17:49:33.703Z,9.30
2022-11-06T17:53:35.348Z,9.30
2022-11-06T17:57:37.023Z,9.30
2022-11-06T18:01:39.285Z,9.20
2022-11-06T18:05:41.348Z,9.20
2022-11-06T18:09:43.322Z,9.20
2022-11-06T18:13:45.560Z,9.20
2022-11-06T18:17:47.241Z,9.20
2022-11-06T18:21:49.517Z,9.10
2022-11-06T18:25:55.760Z,9.10
2022-11-06T18:29:57.367Z,9.10
2022-11-06T18:33:59.100Z,9.10
2022-11-06T18:38:01.398Z,9.00
2022-11-06T18:42:03.129Z,9.10
2022-11-06T18:46:05.250Z,9.10
2022-11-06T18:50:07.223Z,9.00
2022-11-06T18:54:10.401Z,9.00
2022-11-06T18:58:12.566Z,9.00
2022-11-06T19:02:14.598Z,9.00
2022-11-06T19:06:17.323Z,9.00
2022-11-06T19:10:18.962Z,9.10
2022-11-06T19:14:20.557Z,9.10
2022-11-06T19:18:22.233Z,9.10
2022-11-06T19:22:23.823Z,9.10
2022-11-06T19:26:30.936Z,9.20
2022-11-06T19:30:32.985Z,9.10
2022-11-06T19:34:39.039Z,9.10
2022-11-06T19:38:41.495Z,9.10
2022-11-06T19:42:43.147Z,9.20
2022-11-06T19:46:44.852Z,9.10
2022-11-06T19:51:05.728Z,9.20
2022-11-06T19:55:26.371Z,9.20
2022-11-06T19:59:30.099Z,9.10
2022-11-06T20:03:31.713Z,9.20
2022-11-06T20:07:33.557Z,9.10
2022-11-06T20:11:35.484Z,9.10
2022-11-06T20:15:37.352Z,9.20
2022-11-06T20:19:39.060Z,9.20
2022-11-06T20:23:40.838Z,9.20
2022-11-06T20:27:42.592Z,9.20
2022-11-06T20:31:44.564Z,9.30
2022-11-06T20:35:46.313Z,9.30
2022-11-06T20:39:49.868Z,9.40
2022-11-06T20:43:52.318Z,9.40
2022-11-06T20:47:54.519Z,9.40
2022-11-06T20:52:13.386Z,9.50
2022-11-06T20:56:16.834Z,9.40
2022-11-06T21:00:18.703Z,9.50
2022-11-06T21:04:21.350Z,9.50
2022-11-06T21:08:25.893Z,9.50
2022-11-06T21:12:27.698Z,9.50
2022-11-06T21:16:34.187Z,9.60
2022-11-06T21:20:37.780Z,9.60
2022-11-06T21:24:39.623Z,9.60
2022-11-06T21:28:43.968Z,9.70
2022-11-06T21:32:45.963Z,9.70
2022-11-06T21:36:48.059Z,9.70
2022-11-06T21:40:50.215Z,9.80
2022-11-06T21:44:51.957Z,9.80
2022-11-06T21:48:54.086Z,9.80
2022-11-06T21:53:14.622Z,9.80
2022-11-06T21:57:16.342Z,9.70
2022-11-06T22:01:18.974Z,9.80
2022-11-06T22:05:20.629Z,9.90
2022-11-06T22:09:25.698Z,9.90
2022-11-06T22:13:28.962Z,9.90
2022-11-06T22:17:31.284Z,10.00
2022-11-06T22:21:33.055Z,10.00
2022-11-06T22:25:34.666Z,10.00
2022-11-06T22:29:36.250Z,9.90
2022-11-06T22:33:38.077Z,9.90
2022-11-06T22:37:39.771Z,10.00
2022-11-06T22:41:41.474Z,10.10
2022-11-06T22:45:43.699Z,10.00
2022-11-06T22:49:45.548Z,10.10
2022-11-06T22:53:47.576Z,10.10
2022-11-06T22:57:49.201Z,10.10
2022-11-06T23:01:50.845Z,10.10
2022-11-06T23:05:52.538Z,10.10
2022-11-06T23:09:54.116Z,10.20
2022-11-06T23:13:56.195Z,10.20
2022-11-06T23:17:57.934Z,10.20
2022-11-06T23:22:18.201Z,10.20
2022-11-06T23:26:19.867Z,10.20
2022-11-06T23:30:21.719Z,10.20
2022-11-06T23:34:23.353Z,10.10
2022-11-06T23:38:24.985Z,10.10
2022-11-06T23:42:26.819Z,10.00
2022-11-06T23:46:30.039Z,10.00
2022-11-06T23:50:32.055Z,9.90
2022-11-06T23:54:33.678Z,10.00
2022-11-06T23:58:39.370Z,9.90
